createdAt,value
2022-08-04T00:02:28.608Z,22.80
2022-08-04T00:05:30.058Z,22.70
2022-08-04T00:08:27.167Z,22.70
2022-08-04T00:11:21.863Z,22.60
2022-08-04T00:14:13.961Z,22.60
2022-08-04T00:17:01.124Z,22.50
2022-08-04T00:19:51.354Z,22.50
2022-08-04T00:22:44.504Z,22.40
2022-08-04T00:25:31.542Z,22.40
2022-08-04T00:28:21.624Z,22.20
2022-08-04T00:31:12.434Z,22.20
2022-08-04T00:34:03.628Z,22.20
2022-08-04T00:36:51.396Z,22.20
2022-08-04T00:39:39.354Z,22.10
2022-08-04T00:42:58.149Z,22.10
2022-08-04T00:46:17.817Z,22.10
2022-08-04T00:49:22.709Z,22.00
2022-08-04T00:52:32.320Z,22.00
2022-08-04T00:55:38.503Z,22.00
2022-08-04T00:58:40.291Z,21.90
2022-08-04T01:01:52.900Z,21.90
2022-08-04T01:04:51.015Z,21.80
2022-08-04T01:07:56.545Z,21.80
2022-08-04T01:10:56.394Z,21.80
2022-08-04T01:13:57.603Z,21.70
2022-08-04T01:16:53.618Z,21.70
2022-08-04T01:20:01.416Z,21.60
2022-08-04T01:23:15.669Z,21.60
2022-08-04T01:26:43.625Z,21.50
2022-08-04T01:29:34.356Z,21.40
2022-08-04T01:32:37.892Z,21.40
2022-08-04T01:35:47.407Z,21.30
2022-08-04T01:38:37.760Z,21.30
2022-08-04T01:41:32.633Z,21.20
2022-08-04T01:44:20.507Z,21.20
2022-08-04T01:47:10.224Z,21.20
2022-08-04T01:50:05.523Z,21.10
2022-08-04T01:52:56.144Z,21.10
2022-08-04T01:55:52.009Z,21.00
2022-08-04T01:58:42.845Z,21.00
2022-08-04T02:01:30.665Z,20.90
2022-08-04T02:04:23.542Z,20.90
2022-08-04T02:07:27.650Z,20.90
2022-08-04T02:10:24.887Z,20.90
2022-08-04T02:13:18.659Z,20.80
2022-08-04T02:16:11.309Z,20.80
2022-08-04T02:19:06.633Z,20.70
2022-08-04T02:22:09.630Z,20.70
2022-08-04T02:25:03.195Z,20.70
2022-08-04T02:27:59.916Z,20.70
2022-08-04T02:30:58.624Z,20.70
2022-08-04T02:33:47.656Z,20.60
2022-08-04T02:36:38.255Z,20.50
2022-08-04T02:39:32.589Z,20.50
2022-08-04T02:42:37.262Z,20.50
2022-08-04T02:45:26.551Z,20.40
2022-08-04T02:48:29.858Z,20.40
2022-08-04T02:51:21.701Z,20.40
2022-08-04T02:54:09.371Z,20.30
2022-08-04T02:57:01.177Z,20.30
2022-08-04T03:00:04.883Z,20.30
2022-08-04T03:03:02.704Z,20.30
2022-08-04T03:06:12.004Z,20.20
2022-08-04T03:09:19.947Z,20.20
2022-08-04T03:12:29.954Z,20.20
2022-08-04T03:15:46.172Z,20.10
2022-08-04T03:18:51.740Z,20.10
2022-08-04T03:22:12.034Z,20.10
2022-08-04T03:25:23.857Z,20.00
2022-08-04T03:28:46.718Z,20.00
2022-08-04T03:31:36.195Z,19.90
2022-08-04T03:34:38.564Z,19.90
2022-08-04T03:37:51.610Z,19.90
2022-08-04T03:41:05.449Z,19.90
2022-08-04T03:44:23.010Z,19.80
2022-08-04T03:47:31.173Z,19.80
2022-08-04T03:50:46.472Z,19.80
2022-08-04T03:53:44.881Z,19.70
2022-08-04T03:56:45.694Z,19.70
2022-08-04T03:59:51.333Z,19.70
2022-08-04T04:03:05.373Z,19.70
2022-08-04T04:06:17.153Z,19.70
2022-08-04T04:09:22.989Z,19.70
2022-08-04T04:12:35.115Z,19.60
2022-08-04T04:15:41.286Z,19.60
2022-08-04T04:18:53.348Z,19.60
2022-08-04T04:21:46.261Z,19.60
2022-08-04T04:24:46.711Z,19.50
2022-08-04T04:27:44.408Z,19.50
2022-08-04T04:30:40.934Z,19.50
2022-08-04T04:33:40.233Z,19.50
2022-08-04T04:36:35.604Z,19.50
2022-08-04T04:39:33.481Z,19.50
2022-08-04T04:42:40.374Z,19.50
2022-08-04T04:45:35.264Z,19.60
2022-08-04T04:48:35.497Z,19.50
2022-08-04T04:51:35.046Z,19.60
2022-08-04T04:54:32.154Z,19.60
2022-08-04T04:57:23.220Z,19.70
2022-08-04T05:00:46.128Z,19.70
2022-08-04T05:03:49.416Z,19.70
2022-08-04T05:06:55.718Z,19.70
2022-08-04T05:09:58.031Z,19.80
2022-08-04T05:14:36.806Z,19.80
2022-08-04T05:16:12.750Z,19.90
2022-08-04T05:19:11.192Z,19.90
2022-08-04T05:22:03.650Z,19.90
2022-08-04T05:24:54.692Z,20.10
2022-08-04T05:27:47.010Z,20.10
2022-08-04T05:30:47.521Z,20.20
2022-08-04T05:33:42.782Z,20.20
2022-08-04T05:36:41.364Z,20.30
2022-08-04T05:39:34.444Z,20.40
2022-08-04T05:42:23.336Z,20.50
2022-08-04T05:45:11.537Z,20.60
2022-08-04T05:47:58.790Z,20.70
2022-08-04T05:50:49.029Z,20.80
2022-08-04T05:53:36.535Z,20.90
2022-08-04T05:56:24.968Z,21.00
2022-08-04T05:59:14.002Z,21.10
2022-08-04T06:02:03.623Z,21.20
2022-08-04T06:04:52.214Z,21.30
2022-08-04T06:08:12.184Z,21.40
2022-08-04T06:10:49.483Z,21.60
2022-08-04T06:13:49.078Z,21.70
2022-08-04T06:16:40.724Z,21.90
2022-08-04T06:20:03.830Z,22.00
2022-08-04T06:22:43.894Z,22.20
2022-08-04T06:25:34.419Z,22.40
2022-08-04T06:28:22.779Z,22.50
2022-08-04T06:32:28.233Z,22.70
2022-08-04T06:34:19.261Z,22.90
2022-08-04T06:37:07.827Z,23.20
2022-08-04T06:39:57.540Z,23.40
2022-08-04T06:42:45.696Z,23.60
2022-08-04T06:45:35.835Z,23.80
2022-08-04T06:48:23.753Z,24.00
2022-08-04T06:51:25.115Z,24.20
2022-08-04T06:54:20.674Z,24.40
2022-08-04T06:57:10.731Z,24.60
2022-08-04T07:00:01.002Z,24.70
2022-08-04T07:02:52.116Z,25.00
2022-08-04T07:05:39.933Z,25.10
2022-08-04T07:08:28.200Z,25.30
2022-08-04T07:11:16.144Z,25.40
2022-08-04T07:14:05.775Z,25.60
2022-08-04T07:16:54.118Z,25.80
2022-08-04T07:19:41.337Z,26.00
2022-08-04T07:22:29.723Z,26.20
2022-08-04T07:25:19.460Z,26.40
2022-08-04T07:28:09.466Z,26.70
2022-08-04T07:30:59.552Z,26.90
2022-08-04T07:33:48.266Z,27.00
2022-08-04T07:36:57.604Z,27.20
2022-08-04T07:39:48.254Z,27.40
2022-08-04T07:42:36.841Z,27.50
2022-08-04T07:45:25.810Z,27.70
2022-08-04T07:48:15.738Z,28.00
2022-08-04T07:51:04.595Z,28.30
2022-08-04T07:53:56.366Z,28.50
2022-08-04T07:56:45.028Z,28.80
2022-08-04T07:59:31.984Z,28.90
2022-08-04T08:02:21.651Z,29.10
2022-08-04T08:05:12.391Z,29.20
2022-08-04T08:08:00.727Z,29.40
2022-08-04T08:10:49.423Z,29.50
2022-08-04T08:13:38.032Z,29.70
2022-08-04T08:16:25.366Z,29.90
2022-08-04T08:19:12.894Z,30.10
2022-08-04T08:22:02.393Z,30.40
2022-08-04T08:24:49.667Z,30.70
2022-08-04T08:27:38.630Z,31.00
2022-08-04T08:30:43.377Z,31.30
2022-08-04T08:33:30.501Z,31.60
2022-08-04T08:36:25.580Z,31.90
2022-08-04T08:39:21.579Z,32.20
2022-08-04T08:42:38.352Z,32.50
2022-08-04T08:45:30.942Z,32.80
2022-08-04T08:48:34.613Z,33.10
2022-08-04T08:51:38.515Z,33.30
2022-08-04T08:54:48.697Z,33.50
2022-08-04T08:58:00.168Z,33.80
2022-08-04T09:00:56.697Z,34.00
2022-08-04T09:04:03.356Z,34.30
2022-08-04T09:07:03.479Z,34.60
2022-08-04T09:10:04.053Z,34.80
2022-08-04T09:12:57.337Z,35.00
2022-08-04T09:15:54.460Z,35.20
2022-08-04T09:18:48.850Z,35.30
2022-08-04T09:21:40.876Z,35.60
2022-08-04T09:24:45.921Z,35.70
2022-08-04T09:27:41.886Z,35.80
2022-08-04T09:30:39.895Z,35.80
2022-08-04T09:33:44.774Z,35.80
2022-08-04T09:36:40.663Z,35.90
2022-08-04T09:39:36.272Z,36.00
2022-08-04T09:42:31.578Z,36.10
2022-08-04T09:45:43.202Z,36.20
2022-08-04T09:48:35.671Z,36.20
2022-08-04T09:51:59.028Z,36.30
2022-08-04T09:54:50.417Z,36.40
2022-08-04T09:57:52.979Z,36.40
2022-08-04T10:00:50.793Z,36.50
2022-08-04T10:03:45.224Z,36.60
2022-08-04T10:06:47.710Z,36.60
2022-08-04T10:09:48.936Z,36.70
2022-08-04T10:12:45.558Z,36.80
2022-08-04T10:15:41.514Z,36.90
2022-08-04T10:18:45.327Z,37.00
2022-08-04T10:21:59.018Z,37.00
2022-08-04T10:25:02.148Z,37.00
2022-08-04T10:27:53.720Z,37.10
2022-08-04T10:30:44.476Z,37.20
2022-08-04T10:33:40.038Z,37.20
2022-08-04T10:36:33.410Z,37.30
2022-08-04T10:39:42.164Z,37.30
2022-08-04T10:42:33.321Z,37.30
2022-08-04T10:45:24.899Z,37.30
2022-08-04T10:48:34.256Z,37.20
2022-08-04T10:51:31.343Z,37.20
2022-08-04T10:54:49.726Z,37.10
2022-08-04T10:57:41.540Z,37.20
2022-08-04T11:00:31.307Z,37.10
2022-08-04T11:03:24.498Z,37.20
2022-08-04T11:06:11.915Z,37.10
2022-08-04T11:09:02.293Z,37.10
2022-08-04T11:11:56.965Z,37.10
2022-08-04T11:14:54.577Z,37.00
2022-08-04T11:17:45.206Z,37.00
2022-08-04T11:20:39.279Z,37.00
2022-08-04T11:23:33.869Z,37.00
2022-08-04T11:26:30.809Z,37.00
2022-08-04T11:29:24.404Z,37.00
2022-08-04T11:32:18.894Z,37.10
2022-08-04T11:35:11.315Z,37.00
2022-08-04T11:38:04.835Z,37.10
2022-08-04T11:41:02.792Z,37.00
2022-08-04T11:44:02.894Z,37.00
2022-08-04T11:46:55.457Z,37.00
2022-08-04T11:49:56.677Z,36.90
2022-08-04T11:52:46.791Z,36.90
2022-08-04T11:56:08.119Z,36.90
2022-08-04T11:58:50.230Z,37.00
2022-08-04T12:01:51.858Z,37.00
2022-08-04T12:04:47.398Z,37.10
2022-08-04T12:07:46.831Z,37.10
2022-08-04T12:10:45.357Z,37.10
2022-08-04T12:13:40.881Z,37.10
2022-08-04T12:16:36.763Z,37.10
2022-08-04T12:19:43.765Z,37.20
2022-08-04T12:22:45.095Z,37.20
2022-08-04T12:25:44.930Z,37.20
2022-08-04T12:29:07.354Z,37.10
2022-08-04T12:31:48.167Z,37.10
2022-08-04T12:34:43.174Z,37.10
2022-08-04T12:37:39.843Z,37.10
2022-08-04T12:40:31.224Z,37.10
2022-08-04T12:43:24.107Z,37.10
2022-08-04T12:46:13.038Z,37.10
2022-08-04T12:49:03.518Z,37.00
2022-08-04T12:52:06.708Z,37.10
2022-08-04T12:54:57.603Z,37.20
2022-08-04T12:57:45.658Z,37.20
2022-08-04T13:00:41.412Z,37.20
2022-08-04T13:03:37.902Z,37.30
2022-08-04T13:06:27.802Z,37.30
2022-08-04T13:09:19.501Z,37.30
2022-08-04T13:12:13.884Z,37.30
2022-08-04T13:15:10.720Z,37.30
2022-08-04T13:18:11.830Z,37.40
2022-08-04T13:21:21.035Z,37.30
2022-08-04T13:24:22.742Z,37.30
2022-08-04T13:27:23.670Z,37.30
2022-08-04T13:30:22.779Z,37.30
2022-08-04T13:33:12.465Z,37.30
2022-08-04T13:36:01.188Z,37.30
2022-08-04T13:38:51.689Z,37.40
2022-08-04T13:41:42.535Z,37.50
2022-08-04T13:44:34.273Z,37.50
2022-08-04T13:47:28.132Z,37.30
2022-08-04T13:50:23.650Z,37.30
2022-08-04T13:53:10.910Z,37.30
2022-08-04T13:56:00.726Z,37.40
2022-08-04T13:58:51.004Z,37.40
2022-08-04T14:01:42.121Z,37.50
2022-08-04T14:04:42.619Z,37.60
2022-08-04T14:07:31.885Z,37.60
2022-08-04T14:10:19.461Z,37.60
2022-08-04T14:13:07.717Z,37.60
2022-08-04T14:16:02.262Z,37.60
2022-08-04T14:19:01.934Z,37.70
2022-08-04T14:21:49.926Z,37.70
2022-08-04T14:24:36.916Z,37.70
2022-08-04T14:27:24.566Z,37.70
2022-08-04T14:30:24.091Z,37.70
2022-08-04T14:34:02.230Z,37.80
2022-08-04T14:36:23.356Z,37.80
2022-08-04T14:39:13.067Z,37.80
2022-08-04T14:42:00.362Z,37.80
2022-08-04T14:44:57.422Z,37.80
2022-08-04T14:47:51.803Z,37.80
2022-08-04T14:50:42.494Z,37.80
2022-08-04T14:53:31.216Z,37.80
2022-08-04T14:56:44.911Z,37.80
2022-08-04T14:59:26.300Z,37.80
2022-08-04T15:02:15.906Z,37.90
2022-08-04T15:05:55.595Z,37.80
2022-08-04T15:08:13.117Z,37.80
2022-08-04T15:11:03.130Z,37.70
2022-08-04T15:13:50.444Z,37.80
2022-08-04T15:16:37.648Z,37.70
2022-08-04T15:19:41.759Z,37.70
2022-08-04T15:22:43.542Z,37.70
2022-08-04T15:25:35.036Z,37.60
2022-08-04T15:28:28.871Z,37.60
2022-08-04T15:32:04.786Z,37.60
2022-08-04T15:34:27.439Z,37.50
2022-08-04T15:37:20.330Z,37.50
2022-08-04T15:40:13.573Z,37.40
2022-08-04T15:43:19.865Z,37.50
2022-08-04T15:46:42.744Z,37.50
2022-08-04T15:49:23.688Z,37.40
2022-08-04T15:52:12.787Z,37.40
2022-08-04T15:55:34.553Z,37.40
2022-08-04T15:58:23.409Z,37.40
2022-08-04T16:01:20.466Z,37.20
2022-08-04T16:04:23.827Z,37.20
2022-08-04T16:07:10.688Z,37.10
2022-08-04T16:10:40.676Z,37.10
2022-08-04T16:13:27.716Z,37.10
2022-08-04T16:16:49.155Z,37.00
2022-08-04T16:19:53.458Z,37.10
2022-08-04T16:22:42.289Z,37.00
2022-08-04T16:25:46.387Z,37.00
2022-08-04T16:28:43.013Z,36.90
2022-08-04T16:31:30.774Z,36.70
2022-08-04T16:34:48.205Z,36.70
2022-08-04T16:37:34.238Z,36.70
2022-08-04T16:40:35.376Z,36.60
2022-08-04T16:43:29.377Z,36.50
2022-08-04T16:46:41.898Z,36.50
2022-08-04T16:50:03.096Z,36.50
2022-08-04T16:52:52.278Z,36.50
2022-08-04T16:55:39.918Z,36.50
2022-08-04T16:58:30.328Z,36.50
2022-08-04T17:01:28.379Z,36.50
2022-08-04T17:04:49.237Z,36.50
2022-08-04T17:08:27.992Z,36.40
2022-08-04T17:11:07.600Z,36.30
2022-08-04T17:14:03.415Z,36.20
2022-08-04T17:16:53.793Z,36.10
2022-08-04T17:19:40.646Z,36.10
2022-08-04T17:22:29.502Z,36.00
2022-08-04T17:25:17.154Z,36.00
2022-08-04T17:28:08.971Z,36.00
2022-08-04T17:31:10.958Z,35.90
2022-08-04T17:34:00.227Z,35.80
2022-08-04T17:40:09.987Z,35.70
2022-08-04T17:44:04.526Z,35.70
2022-08-04T17:46:29.237Z,35.70
2022-08-04T17:49:23.187Z,35.50
2022-08-04T17:52:37.440Z,35.40
2022-08-04T17:55:41.198Z,35.30
2022-08-04T17:58:31.019Z,35.10
2022-08-04T18:01:24.486Z,35.00
2022-08-04T18:04:27.348Z,34.80
2022-08-04T18:08:41.416Z,34.70
2022-08-04T18:10:38.489Z,34.40
2022-08-04T18:13:42.884Z,34.30
2022-08-04T18:16:31.065Z,34.10
2022-08-04T18:19:19.029Z,34.00
2022-08-04T18:22:14.159Z,33.90
2022-08-04T18:25:04.202Z,33.70
2022-08-04T18:27:53.056Z,33.50
2022-08-04T18:30:54.977Z,33.40
2022-08-04T18:33:43.311Z,33.30
2022-08-04T18:36:57.311Z,33.10
2022-08-04T18:40:21.374Z,32.90
2022-08-04T18:42:54.982Z,32.80
2022-08-04T18:45:50.915Z,32.60
2022-08-04T18:48:38.745Z,32.50
2022-08-04T18:51:30.781Z,32.30
2022-08-04T18:54:18.667Z,32.20
2022-08-04T19:00:19.982Z,31.90
2022-08-04T19:03:08.589Z,31.80
2022-08-04T19:05:56.299Z,31.70
2022-08-04T19:08:45.790Z,31.60
2022-08-04T19:11:53.335Z,31.40
2022-08-04T19:14:41.413Z,31.30
2022-08-04T19:17:53.629Z,31.20
2022-08-04T19:20:40.044Z,31.10
2022-08-04T19:24:28.060Z,31.00
2022-08-04T19:26:38.535Z,30.90
2022-08-04T19:29:38.027Z,30.80
2022-08-04T19:32:27.785Z,30.70
2022-08-04T19:35:14.636Z,30.50
2022-08-04T19:38:04.011Z,30.50
2022-08-04T19:40:52.757Z,30.30
2022-08-04T19:43:43.872Z,30.20
2022-08-04T19:46:31.110Z,30.10
2022-08-04T19:50:03.317Z,30.00
2022-08-04T19:52:33.612Z,29.90
2022-08-04T19:55:37.639Z,29.80
2022-08-04T19:58:26.715Z,29.70
2022-08-04T20:01:33.423Z,29.60
2022-08-04T20:04:22.083Z,29.50
2022-08-04T20:07:14.208Z,29.40
2022-08-04T20:10:04.282Z,29.30
2022-08-04T20:15:59.431Z,29.10
2022-08-04T20:18:55.626Z,29.00
2022-08-04T20:21:56.174Z,29.00
2022-08-04T20:24:50.435Z,28.90
2022-08-04T20:27:51.622Z,28.80
2022-08-04T20:30:48.160Z,28.70
2022-08-04T20:33:36.113Z,28.60
2022-08-04T20:36:23.803Z,28.50
2022-08-04T20:39:11.113Z,28.50
2022-08-04T20:42:02.937Z,28.40
2022-08-04T20:44:50.200Z,28.30
2022-08-04T20:47:39.461Z,28.20
2022-08-04T20:50:29.865Z,28.10
2022-08-04T20:53:17.876Z,28.10
2022-08-04T20:56:05.188Z,28.00
2022-08-04T20:58:53.747Z,27.90
2022-08-04T21:01:40.896Z,27.80
2022-08-04T21:04:45.555Z,27.80
2022-08-04T21:07:36.456Z,27.70
2022-08-04T21:10:33.353Z,27.60
2022-08-04T21:13:20.202Z,27.60
2022-08-04T21:16:10.007Z,27.50
2022-08-04T21:19:17.109Z,27.50
2022-08-04T21:22:10.361Z,27.40
2022-08-04T21:24:57.467Z,27.30
2022-08-04T21:27:44.759Z,27.20
2022-08-04T21:30:52.548Z,27.20
2022-08-04T21:33:50.059Z,27.10
2022-08-04T21:36:38.578Z,26.90
2022-08-04T21:39:32.652Z,26.90
2022-08-04T21:42:27.955Z,26.90
2022-08-04T21:45:17.472Z,26.80
2022-08-04T21:48:07.810Z,26.80
2022-08-04T21:50:54.924Z,26.80
2022-08-04T21:53:42.515Z,26.70
2022-08-04T21:56:31.034Z,26.70
2022-08-04T21:59:23.751Z,26.60
2022-08-04T22:02:17.520Z,26.60
2022-08-04T22:05:07.343Z,26.50
2022-08-04T22:07:55.737Z,26.50
2022-08-04T22:10:42.739Z,26.40
2022-08-04T22:13:52.501Z,26.40
2022-08-04T22:16:40.922Z,26.30
2022-08-04T22:19:49.792Z,26.30
2022-08-04T22:22:35.954Z,26.30
2022-08-04T22:25:24.828Z,26.30
2022-08-04T22:28:18.910Z,26.30
2022-08-04T22:31:23.209Z,26.20
2022-08-04T22:34:11.934Z,26.30
2022-08-04T22:37:00.007Z,26.20
2022-08-04T22:39:56.355Z,26.20
2022-08-04T22:42:44.727Z,26.20
2022-08-04T22:45:44.831Z,26.20
2022-08-04T22:48:34.246Z,26.10
2022-08-04T22:51:22.501Z,26.10
2022-08-04T22:54:12.321Z,26.10
2022-08-04T22:56:59.334Z,26.00
2022-08-04T22:59:47.613Z,26.00
2022-08-04T23:02:36.138Z,25.90
2022-08-04T23:05:35.596Z,25.90
2022-08-04T23:08:23.245Z,25.80
2022-08-04T23:11:13.943Z,25.80
2022-08-04T23:14:02.047Z,25.70
2022-08-04T23:16:49.066Z,25.70
2022-08-04T23:19:40.439Z,25.60
2022-08-04T23:22:41.993Z,25.50
2022-08-04T23:25:32.935Z,25.50
2022-08-04T23:28:36.567Z,25.40
2022-08-04T23:31:24.171Z,25.40
2022-08-04T23:34:12.292Z,25.30
2022-08-04T23:36:59.697Z,25.20
2022-08-04T23:40:14.620Z,25.20
2022-08-04T23:42:55.977Z,25.10
2022-08-04T23:46:05.131Z,25.10
2022-08-04T23:48:51.103Z,25.00
2022-08-04T23:51:39.488Z,24.90
2022-08-04T23:54:26.656Z,24.80
2022-08-04T23:57:17.318Z,24.80
